createdAt,value
2023-03-14T00:01:48.124Z,100198.07
2023-03-14T00:04:16.593Z,100216.64
2023-03-14T00:06:44.581Z,100215.23
2023-03-14T00:09:12.525Z,100226.16
2023-03-14T00:11:40.438Z,100216.77
2023-03-14T00:14:08.295Z,100229.00
2023-03-14T00:16:40.969Z,100222.46
2023-03-14T00:19:08.868Z,100216.28
2023-03-14T00:21:36.682Z,100225.21
2023-03-14T00:24:04.573Z,100229.27
2023-03-14T00:26:35.046Z,100219.75
2023-03-14T00:29:02.915Z,100227.95
2023-03-14T00:31:30.930Z,100227.27
2023-03-14T00:33:58.861Z,100220.47
2023-03-14T00:36:27.003Z,100234.76
2023-03-14T00:38:54.926Z,100220.50
2023-03-14T00:41:27.083Z,100225.96
2023-03-14T00:43:54.968Z,100210.30
2023-03-14T00:46:24.312Z,100198.89
2023-03-14T00:48:52.219Z,100182.51
2023-03-14T00:51:20.081Z,100124.84
2023-03-14T00:53:48.011Z,100107.02
2023-03-14T00:56:16.115Z,100084.23
2023-03-14T00:58:43.983Z,100092.66
2023-03-14T01:01:16.874Z,100074.25
2023-03-14T01:03:44.747Z,100068.92
2023-03-14T01:06:48.895Z,100035.84
2023-03-14T01:09:16.733Z,100015.89
2023-03-14T01:11:46.204Z,100017.10
2023-03-14T01:14:15.062Z,100034.52
2023-03-14T01:16:42.983Z,100032.59
2023-03-14T01:19:11.372Z,100032.59
2023-03-14T01:21:39.258Z,100031.78
2023-03-14T01:24:07.880Z,100018.73
2023-03-14T01:26:36.386Z,100019.65
2023-03-14T01:29:04.511Z,100010.66
2023-03-14T01:31:32.531Z,100035.84
2023-03-14T01:34:00.602Z,100062.41
2023-03-14T01:36:30.499Z,100066.93
2023-03-14T01:38:59.633Z,100068.92
2023-03-14T01:41:27.635Z,100062.41
2023-03-14T01:43:55.598Z,100065.98
2023-03-14T01:46:28.861Z,100063.49
2023-03-14T01:49:09.940Z,100043.91
2023-03-14T01:51:44.863Z,100055.29
2023-03-14T01:54:15.163Z,100035.38
2023-03-14T01:56:44.430Z,100046.75
2023-03-14T01:59:12.285Z,100036.20
2023-03-14T02:01:40.650Z,100019.95
2023-03-14T02:04:08.661Z,100012.23
2023-03-14T02:07:01.905Z,99992.74
2023-03-14T02:09:29.753Z,100000.49
2023-03-14T02:11:57.663Z,100001.66
2023-03-14T02:14:32.446Z,100006.54
2023-03-14T02:17:00.389Z,100006.90
2023-03-14T02:19:58.617Z,100005.72
2023-03-14T02:22:26.541Z,99994.77
2023-03-14T02:25:00.463Z,99999.64
2023-03-14T02:27:28.388Z,100000.03
2023-03-14T02:30:04.754Z,100013.41
2023-03-14T02:32:34.180Z,100010.20
2023-03-14T02:35:04.339Z,100001.66
2023-03-14T02:38:02.962Z,100001.66
2023-03-14T02:40:30.730Z,100001.30
2023-03-14T02:42:58.731Z,100008.66
2023-03-14T02:45:26.402Z,100014.48
2023-03-14T02:47:59.981Z,99999.31
2023-03-14T02:50:29.397Z,100008.56
2023-03-14T02:52:57.278Z,99990.19
2023-03-14T02:55:25.737Z,99983.29
2023-03-14T02:57:53.665Z,99983.65
2023-03-14T03:00:21.890Z,99976.30
2023-03-14T03:02:49.766Z,99976.30
2023-03-14T03:05:17.882Z,99976.30
2023-03-14T03:07:45.642Z,99985.32
2023-03-14T03:10:13.897Z,99983.29
2023-03-14T03:12:41.733Z,99964.55
2023-03-14T03:15:09.943Z,99968.71
2023-03-14T03:17:37.919Z,99966.68
2023-03-14T03:20:07.222Z,99976.13
2023-03-14T03:22:35.248Z,99975.80
2023-03-14T03:25:03.140Z,99980.31
2023-03-14T03:27:33.782Z,99982.67
2023-03-14T03:30:01.807Z,99969.72
2023-03-14T03:32:29.717Z,99973.05
2023-03-14T03:34:57.591Z,99964.52
2023-03-14T03:37:25.567Z,99968.09
2023-03-14T03:39:53.907Z,99963.54
2023-03-14T03:42:21.747Z,99971.29
2023-03-14T03:44:50.496Z,99954.19
2023-03-14T03:47:18.456Z,99953.38
2023-03-14T03:49:46.378Z,99955.50
2023-03-14T03:52:14.206Z,99955.14
2023-03-14T03:54:42.033Z,99951.45
2023-03-14T03:57:10.153Z,99949.05
2023-03-14T03:59:38.185Z,99953.21
2023-03-14T04:02:06.112Z,99940.16
2023-03-14T04:04:34.047Z,99942.91
2023-03-14T04:07:02.304Z,99936.86
2023-03-14T04:09:30.180Z,99949.45
2023-03-14T04:11:58.031Z,99949.45
2023-03-14T04:14:25.974Z,99935.20
2023-03-14T04:16:53.810Z,99917.63
2023-03-14T04:19:22.326Z,99911.95
2023-03-14T04:21:50.321Z,99906.59
2023-03-14T04:24:18.190Z,99920.84
2023-03-14T04:26:46.300Z,99906.98
2023-03-14T04:29:14.172Z,99908.61
2023-03-14T04:31:42.172Z,99902.47
2023-03-14T04:34:10.083Z,99907.44
2023-03-14T04:36:51.682Z,99916.33
2023-03-14T04:39:19.606Z,99906.06
2023-03-14T04:41:48.049Z,99900.34
2023-03-14T04:44:15.899Z,99897.04
2023-03-14T04:46:43.808Z,99897.76
2023-03-14T04:49:11.770Z,99897.76
2023-03-14T04:51:39.599Z,99876.99
2023-03-14T04:54:07.631Z,99882.32
2023-03-14T04:56:35.540Z,99889.32
2023-03-14T04:59:03.688Z,99886.84
2023-03-14T05:01:31.557Z,99888.83
2023-03-14T05:03:59.506Z,99883.14
2023-03-14T05:06:27.362Z,99872.22
2023-03-14T05:08:55.308Z,99860.48
2023-03-14T05:11:23.184Z,99858.00
2023-03-14T05:13:51.648Z,99854.80
2023-03-14T05:16:19.574Z,99852.27
2023-03-14T05:18:47.525Z,99841.72
2023-03-14T05:21:15.702Z,99835.11
2023-03-14T05:23:43.552Z,99827.39
2023-03-14T05:26:11.541Z,99825.27
2023-03-14T05:28:39.503Z,99814.71
2023-03-14T05:31:11.108Z,99820.79
2023-03-14T05:33:39.043Z,99823.63
2023-03-14T05:36:07.569Z,99829.65
2023-03-14T05:38:35.651Z,99822.66
2023-03-14T05:41:03.552Z,99816.15
2023-03-14T05:43:31.584Z,99805.13
2023-03-14T05:45:59.416Z,99811.18
2023-03-14T05:48:27.323Z,99810.75
2023-03-14T05:50:59.031Z,99804.18
2023-03-14T05:53:27.139Z,99788.78
2023-03-14T05:55:57.502Z,99788.32
2023-03-14T05:58:26.117Z,99785.84
2023-03-14T06:00:53.973Z,99771.98
2023-03-14T06:03:21.889Z,99765.44
2023-03-14T06:05:52.276Z,99772.34
2023-03-14T06:08:20.229Z,99773.61
2023-03-14T06:10:48.113Z,99771.62
2023-03-14T06:13:17.489Z,99770.90
2023-03-14T06:15:45.476Z,99765.20
2023-03-14T06:18:14.385Z,99771.71
2023-03-14T06:20:42.279Z,99767.30
2023-03-14T06:23:10.519Z,99782.38
2023-03-14T06:25:38.413Z,99778.71
2023-03-14T06:28:06.495Z,99775.02
2023-03-14T06:30:34.570Z,99775.11
2023-03-14T06:33:02.492Z,99758.77
2023-03-14T06:35:30.494Z,99761.61
2023-03-14T06:37:58.316Z,99764.91
2023-03-14T06:40:26.377Z,99749.52
2023-03-14T06:42:54.375Z,99743.89
2023-03-14T06:45:22.298Z,99742.35
2023-03-14T06:47:50.204Z,99740.75
2023-03-14T06:50:18.209Z,99737.91
2023-03-14T06:52:50.057Z,99745.55
2023-03-14T06:55:19.203Z,99738.00
2023-03-14T06:57:47.986Z,99729.27
2023-03-14T07:00:16.326Z,99728.78
2023-03-14T07:02:44.273Z,99727.15
2023-03-14T07:05:15.124Z,99724.50
2023-03-14T07:07:43.093Z,99729.83
2023-03-14T07:10:11.483Z,99737.84
2023-03-14T07:12:39.344Z,99743.73
2023-03-14T07:15:18.134Z,99735.71
2023-03-14T07:17:47.275Z,99734.18
2023-03-14T07:20:15.143Z,99729.41
2023-03-14T07:25:14.386Z,99734.83
2023-03-14T07:27:42.392Z,99736.50
2023-03-14T07:30:10.960Z,99740.16
2023-03-14T07:32:38.917Z,99749.87
2023-03-14T07:35:07.501Z,99743.46
2023-03-14T07:37:35.379Z,99744.38
2023-03-14T07:40:03.305Z,99756.15
2023-03-14T07:42:31.572Z,99753.77
2023-03-14T07:44:59.374Z,99765.50
2023-03-14T07:47:27.260Z,99753.77
2023-03-14T07:49:55.011Z,99748.95
2023-03-14T07:52:22.824Z,99751.54
2023-03-14T07:54:50.722Z,99758.90
2023-03-14T07:57:18.972Z,99774.98
2023-03-14T07:59:46.982Z,99764.59
2023-03-14T08:02:15.281Z,99772.79
2023-03-14T08:04:43.307Z,99761.58
2023-03-14T08:07:11.243Z,99774.16
2023-03-14T08:09:39.121Z,99757.62
2023-03-14T08:12:07.361Z,99777.20
2023-03-14T08:14:35.245Z,99765.53
2023-03-14T08:17:03.317Z,99768.73
2023-03-14T08:19:31.136Z,99761.19
2023-03-14T08:21:59.383Z,99753.63
2023-03-14T08:24:27.377Z,99750.66
2023-03-14T08:26:55.251Z,99758.47
2023-03-14T08:29:23.029Z,99762.00
2023-03-14T08:31:51.266Z,99761.97
2023-03-14T08:34:19.252Z,99752.98
2023-03-14T08:36:47.315Z,99759.19
2023-03-14T08:39:16.706Z,99771.52
2023-03-14T08:41:46.563Z,99775.84
2023-03-14T08:44:15.437Z,99779.95
2023-03-14T08:46:44.809Z,99771.55
2023-03-14T08:49:12.775Z,99772.17
2023-03-14T08:51:40.561Z,99782.17
2023-03-14T08:54:08.416Z,99785.97
2023-03-14T08:56:36.360Z,99778.84
2023-03-14T08:59:04.228Z,99800.26
2023-03-14T09:01:32.356Z,99789.83
2023-03-14T09:04:00.475Z,99786.07
2023-03-14T09:06:28.390Z,99786.27
2023-03-14T09:08:56.279Z,99796.92
2023-03-14T09:11:24.184Z,99789.53
2023-03-14T09:13:52.002Z,99796.40
2023-03-14T09:16:20.039Z,99784.01
2023-03-14T09:18:47.861Z,99781.75
2023-03-14T09:21:16.591Z,99789.73
2023-03-14T09:23:46.688Z,99803.46
2023-03-14T09:26:14.854Z,99808.73
2023-03-14T09:28:42.815Z,99800.06
2023-03-14T09:31:11.891Z,99810.95
2023-03-14T09:33:39.784Z,99815.33
2023-03-14T09:36:09.860Z,99827.59
2023-03-14T09:38:37.735Z,99837.10
2023-03-14T09:41:12.436Z,99835.80
2023-03-14T09:43:40.354Z,99835.34
2023-03-14T09:46:08.568Z,99850.45
2023-03-14T09:48:37.007Z,99846.85
2023-03-14T09:51:14.032Z,99844.89
2023-03-14T09:53:44.864Z,99852.70
2023-03-14T09:56:19.336Z,99842.08
2023-03-14T09:58:50.301Z,99853.65
2023-03-14T10:01:19.207Z,99847.02
2023-03-14T10:03:47.258Z,99852.73
2023-03-14T10:06:16.099Z,99865.32
2023-03-14T10:08:44.902Z,99867.68
2023-03-14T10:11:19.950Z,99860.38
2023-03-14T10:14:05.199Z,99877.81
2023-03-14T10:16:35.311Z,99874.02
2023-03-14T10:19:08.325Z,99876.99
2023-03-14T10:21:43.745Z,99867.38
2023-03-14T10:24:28.748Z,99869.09
2023-03-14T10:26:57.932Z,99865.62
2023-03-14T10:29:26.294Z,99871.99
2023-03-14T10:31:55.359Z,99877.26
2023-03-14T10:34:32.138Z,99873.56
2023-03-14T10:37:02.029Z,99888.80
2023-03-14T10:39:31.297Z,99882.91
2023-03-14T10:42:19.316Z,99879.64
2023-03-14T10:44:48.157Z,99874.22
2023-03-14T10:47:24.779Z,99913.58
2023-03-14T10:49:52.949Z,99900.93
2023-03-14T10:52:51.033Z,99898.15
2023-03-14T10:55:14.134Z,99914.66
2023-03-14T10:57:45.228Z,99911.20
2023-03-14T11:00:24.337Z,99949.71
2023-03-14T11:02:52.270Z,99931.66
2023-03-14T11:05:37.078Z,99939.74
2023-03-14T11:08:20.048Z,99923.49
2023-03-14T11:10:49.379Z,99929.05
2023-03-14T11:13:39.815Z,99936.37
2023-03-14T11:16:41.286Z,99924.53
2023-03-14T11:19:34.458Z,99915.41
2023-03-14T11:22:35.513Z,99897.10
2023-03-14T11:25:22.301Z,99926.76
2023-03-14T11:28:08.635Z,99931.80
2023-03-14T11:30:56.644Z,99931.14
2023-03-14T11:33:37.622Z,99944.38
2023-03-14T11:36:12.859Z,99931.40
2023-03-14T11:38:50.335Z,99934.73
2023-03-14T11:41:25.861Z,99962.13
2023-03-14T11:43:57.049Z,99954.98
2023-03-14T11:46:33.980Z,99946.24
2023-03-14T11:49:22.427Z,99954.81
2023-03-14T11:51:52.185Z,99962.70
2023-03-14T11:54:30.028Z,99987.97
2023-03-14T11:57:00.542Z,99966.52
2023-03-14T11:59:50.096Z,99975.34
2023-03-14T12:02:37.676Z,99989.14
2023-03-14T12:05:11.638Z,100003.20
2023-03-14T12:07:45.095Z,100017.88
2023-03-14T12:10:13.291Z,99999.02
2023-03-14T12:12:41.483Z,100021.71
2023-03-14T12:15:21.804Z,100014.98
2023-03-14T12:17:49.729Z,100050.80
2023-03-14T12:20:23.492Z,100010.36
2023-03-14T12:22:59.159Z,100029.20
2023-03-14T12:25:28.844Z,100034.03
2023-03-14T12:27:57.062Z,100029.75
2023-03-14T12:30:44.722Z,100020.73
2023-03-14T12:33:19.507Z,100011.12
2023-03-14T12:35:51.063Z,100039.98
2023-03-14T12:38:38.492Z,100031.19
2023-03-14T12:41:33.993Z,100014.13
2023-03-14T12:44:45.307Z,100022.55
2023-03-14T12:47:20.563Z,100057.48
2023-03-14T12:49:50.363Z,100041.85
2023-03-14T12:52:24.252Z,100048.98
2023-03-14T12:55:12.621Z,100061.66
2023-03-14T12:58:09.235Z,100077.59
2023-03-14T13:00:38.197Z,100091.94
2023-03-14T13:03:24.633Z,100087.13
2023-03-14T13:06:03.424Z,100087.72
2023-03-14T13:08:49.753Z,100104.10
2023-03-14T13:11:18.890Z,100088.77
2023-03-14T13:13:51.122Z,100153.54
2023-03-14T13:16:23.006Z,100140.23
2023-03-14T13:18:53.693Z,100117.77
2023-03-14T13:21:22.428Z,100116.40
2023-03-14T13:24:26.534Z,100135.85
2023-03-14T13:26:56.209Z,100152.43
2023-03-14T13:29:33.539Z,100159.16
2023-03-14T13:32:03.313Z,100193.76
2023-03-14T13:34:32.657Z,100207.23
2023-03-14T13:37:01.237Z,100227.92
2023-03-14T13:39:31.350Z,100269.09
2023-03-14T13:42:03.254Z,100275.10
2023-03-14T13:44:38.962Z,100287.95
2023-03-14T13:47:11.776Z,100270.46
2023-03-14T13:49:39.710Z,100278.27
2023-03-14T13:52:32.843Z,100281.88
2023-03-14T13:55:02.068Z,100307.80
2023-03-14T13:57:29.977Z,100303.45
2023-03-14T14:00:08.740Z,100309.11
2023-03-14T14:02:38.364Z,100317.02
2023-03-14T14:05:06.966Z,100311.43
2023-03-14T14:07:35.887Z,100324.25
2023-03-14T14:10:04.608Z,100338.24
2023-03-14T14:12:54.323Z,100346.55
2023-03-14T14:15:24.638Z,100361.16
2023-03-14T14:17:56.468Z,100354.42
2023-03-14T14:20:34.735Z,100366.33
2023-03-14T14:23:07.913Z,100380.13
2023-03-14T14:25:36.216Z,100377.38
2023-03-14T14:28:22.872Z,100384.99
2023-03-14T14:31:06.735Z,100389.57
2023-03-14T14:33:42.586Z,100396.99
2023-03-14T14:36:20.770Z,100398.76
2023-03-14T14:39:08.726Z,100400.04
2023-03-14T14:41:37.746Z,100425.28
2023-03-14T14:44:06.312Z,100432.96
2023-03-14T14:46:35.794Z,100441.43
2023-03-14T14:49:21.903Z,100449.24
2023-03-14T14:51:52.975Z,100464.05
2023-03-14T14:54:22.465Z,100460.00
2023-03-14T14:56:54.552Z,100464.12
2023-03-14T14:59:32.531Z,100478.02
2023-03-14T15:02:01.961Z,100474.13
2023-03-14T15:04:32.700Z,100480.77
2023-03-14T15:07:00.616Z,100481.71
2023-03-14T15:09:28.654Z,100477.88
2023-03-14T15:11:56.898Z,100487.14
2023-03-14T15:14:24.772Z,100491.69
2023-03-14T15:16:52.628Z,100506.79
2023-03-14T15:19:25.993Z,100522.09
2023-03-14T15:21:55.089Z,100508.78
2023-03-14T15:24:23.397Z,100515.55
2023-03-14T15:26:51.252Z,100508.98
2023-03-14T15:29:19.236Z,100530.73
2023-03-14T15:31:47.248Z,100534.19
2023-03-14T15:34:15.145Z,100541.91
2023-03-14T15:36:43.982Z,100531.70
2023-03-14T15:39:12.541Z,100542.30
2023-03-14T15:41:40.426Z,100530.27
2023-03-14T15:44:08.283Z,100541.74
2023-03-14T15:46:36.580Z,100529.02
2023-03-14T15:49:04.445Z,100533.41
2023-03-14T15:51:32.473Z,100539.35
2023-03-14T15:54:00.361Z,100541.02
2023-03-14T15:56:30.128Z,100543.73
2023-03-14T15:58:58.577Z,100556.29
2023-03-14T16:01:27.146Z,100559.17
2023-03-14T16:03:55.379Z,100561.55
2023-03-14T16:06:23.291Z,100560.94
2023-03-14T16:08:51.152Z,100558.38
2023-03-14T16:11:23.011Z,100564.47
2023-03-14T16:13:51.199Z,100555.54
2023-03-14T16:16:19.266Z,100555.08
2023-03-14T16:18:47.279Z,100553.05
2023-03-14T16:21:19.717Z,100556.75
2023-03-14T16:23:47.840Z,100555.70
2023-03-14T16:26:17.647Z,100558.38
2023-03-14T16:28:45.863Z,100550.54
2023-03-14T16:31:15.916Z,100557.11
2023-03-14T16:33:44.096Z,100559.79
2023-03-14T16:36:13.472Z,100560.80
2023-03-14T16:38:43.333Z,100558.77
2023-03-14T16:41:15.958Z,100541.02
2023-03-14T16:43:44.323Z,100542.92
2023-03-14T16:46:18.628Z,100539.78
2023-03-14T16:48:46.918Z,100540.66
2023-03-14T16:54:02.368Z,100544.65
2023-03-14T16:56:30.280Z,100552.23
2023-03-14T16:58:58.194Z,100548.58
2023-03-14T17:01:26.209Z,100549.27
2023-03-14T17:03:54.428Z,100562.18
2023-03-14T17:06:27.227Z,100565.87
2023-03-14T17:08:56.030Z,100571.92
2023-03-14T17:11:26.967Z,100570.22
2023-03-14T17:13:55.026Z,100583.17
2023-03-14T17:16:24.361Z,100584.70
2023-03-14T17:18:52.929Z,100581.70
2023-03-14T17:21:20.920Z,100589.09
2023-03-14T17:23:48.938Z,100586.24
2023-03-14T17:26:17.558Z,100591.11
2023-03-14T17:28:51.350Z,100597.20
2023-03-14T17:31:25.414Z,100593.17
2023-03-14T17:33:53.697Z,100590.52
2023-03-14T17:36:23.665Z,100599.26
2023-03-14T17:38:51.517Z,100606.32
2023-03-14T17:41:19.480Z,100619.98
2023-03-14T17:43:47.483Z,100613.02
2023-03-14T17:46:16.986Z,100617.07
2023-03-14T17:48:46.179Z,100617.11
2023-03-14T17:51:19.567Z,100629.20
2023-03-14T17:53:47.724Z,100642.25
2023-03-14T17:56:15.581Z,100656.34
2023-03-14T17:58:45.395Z,100674.75
2023-03-14T18:01:18.019Z,100664.05
2023-03-14T18:03:46.867Z,100658.70
2023-03-14T18:06:16.093Z,100657.36
2023-03-14T18:11:27.505Z,100665.37
2023-03-14T18:13:55.412Z,100668.57
2023-03-14T18:16:24.457Z,100671.41
2023-03-14T18:18:52.435Z,100671.41
2023-03-14T18:21:20.429Z,100682.44
2023-03-14T18:23:49.607Z,100679.75
2023-03-14T18:26:17.538Z,100680.08
2023-03-14T18:28:45.555Z,100683.74
2023-03-14T18:31:14.424Z,100683.28
2023-03-14T18:33:43.578Z,100699.14
2023-03-14T18:36:12.372Z,100691.78
2023-03-14T18:38:49.634Z,100708.16
2023-03-14T18:41:20.101Z,100727.69
2023-03-14T18:43:49.200Z,100736.19
2023-03-14T18:46:18.394Z,100744.72
2023-03-14T18:48:46.488Z,100741.68
2023-03-14T18:51:19.941Z,100745.70
2023-03-14T18:53:50.022Z,100754.04
2023-03-14T18:56:18.150Z,100754.89
2023-03-14T18:58:46.248Z,100759.20
2023-03-14T19:01:14.288Z,100786.41
2023-03-14T19:03:43.254Z,100782.52
2023-03-14T19:06:11.566Z,100779.70
2023-03-14T19:08:39.691Z,100792.23
2023-03-14T19:11:08.604Z,100788.20
2023-03-14T19:13:36.745Z,100782.19
2023-03-14T19:16:07.328Z,100787.68
2023-03-14T19:18:35.224Z,100799.62
2023-03-14T19:21:04.836Z,100809.98
2023-03-14T19:23:33.424Z,100808.38
2023-03-14T19:26:01.529Z,100813.97
2023-03-14T19:28:29.734Z,100804.75
2023-03-14T19:30:57.639Z,100828.45
2023-03-14T19:33:25.836Z,100826.72
2023-03-14T19:35:54.026Z,100830.19
2023-03-14T19:38:22.154Z,100839.05
2023-03-14T19:40:51.707Z,100841.34
2023-03-14T19:43:19.669Z,100857.72
2023-03-14T19:45:47.792Z,100851.67
2023-03-14T19:48:16.311Z,100850.30
2023-03-14T19:50:44.602Z,100857.98
2023-03-14T19:53:13.337Z,100884.63
2023-03-14T19:55:47.695Z,100894.83
2023-03-14T19:58:15.553Z,100909.38
2023-03-14T20:00:45.758Z,100896.98
2023-03-14T20:03:13.829Z,100918.01
2023-03-14T20:05:43.048Z,100913.50
2023-03-14T20:08:10.869Z,100908.66
2023-03-14T20:10:38.877Z,100886.62
2023-03-14T20:13:19.225Z,100890.94
2023-03-14T20:15:48.914Z,100896.59
2023-03-14T20:18:17.365Z,100913.14
2023-03-14T20:20:45.235Z,100929.48
2023-03-14T20:23:14.282Z,100939.36
2023-03-14T20:25:42.344Z,100928.67
2023-03-14T20:28:10.350Z,100933.15
2023-03-14T20:30:38.211Z,100941.32
2023-03-14T20:33:06.329Z,100942.70
2023-03-14T20:35:34.339Z,100935.99
2023-03-14T20:38:02.265Z,100933.70
2023-03-14T20:40:30.327Z,100936.19
2023-03-14T20:42:58.273Z,100940.70
2023-03-14T20:45:26.401Z,100938.41
2023-03-14T20:47:54.267Z,100938.41
2023-03-14T20:50:22.423Z,100942.08
2023-03-14T20:52:50.449Z,100944.69
2023-03-14T20:55:18.735Z,100942.66
2023-03-14T20:57:47.499Z,100935.30
2023-03-14T21:00:19.095Z,100936.55
2023-03-14T21:02:47.394Z,100941.39
2023-03-14T21:05:15.618Z,100939.72
2023-03-14T21:07:45.090Z,100936.55
2023-03-14T21:10:14.168Z,100946.42
2023-03-14T21:12:44.425Z,100941.23
2023-03-14T21:15:16.092Z,100943.41
2023-03-14T21:17:48.589Z,100938.48
2023-03-14T21:20:17.876Z,100929.72
2023-03-14T21:22:46.587Z,100926.02
2023-03-14T21:25:15.512Z,100931.16
2023-03-14T21:27:43.693Z,100923.70
2023-03-14T21:30:14.902Z,100915.00
2023-03-14T21:32:43.965Z,100923.83
2023-03-14T21:35:12.278Z,100920.98
2023-03-14T21:37:40.275Z,100908.73
2023-03-14T21:40:10.247Z,100927.91
2023-03-14T21:42:40.601Z,100901.30
2023-03-14T21:45:10.040Z,100905.59
2023-03-14T21:47:39.129Z,100906.63
2023-03-14T21:50:07.867Z,100906.86
2023-03-14T21:52:35.925Z,100913.34
2023-03-14T21:55:05.654Z,100913.34
2023-03-14T21:57:34.472Z,100918.70
2023-03-14T22:00:03.059Z,100912.23
2023-03-14T22:02:31.292Z,100906.20
2023-03-14T22:04:59.175Z,100902.25
2023-03-14T22:07:27.238Z,100894.08
2023-03-14T22:09:56.158Z,100908.43
2023-03-14T22:12:27.054Z,100902.48
2023-03-14T22:14:55.124Z,100893.65
2023-03-14T22:17:23.127Z,100897.02
2023-03-14T22:19:52.569Z,100887.34
2023-03-14T22:22:20.659Z,100886.72
2023-03-14T22:24:48.701Z,100886.10
2023-03-14T22:27:16.838Z,100891.56
2023-03-14T22:29:44.970Z,100896.30
2023-03-14T22:32:13.152Z,100887.80
2023-03-14T22:34:41.072Z,100888.09
2023-03-14T22:37:09.095Z,100886.95
2023-03-14T22:39:37.260Z,100884.43
2023-03-14T22:42:05.816Z,100890.09
2023-03-14T22:44:34.172Z,100896.79
2023-03-14T22:47:05.872Z,100905.84
2023-03-14T22:49:33.866Z,100889.66
2023-03-14T22:52:02.038Z,100901.01
2023-03-14T22:54:30.499Z,100890.84
2023-03-14T22:56:59.176Z,100903.62
2023-03-14T22:59:27.060Z,100910.13
2023-03-14T23:01:55.507Z,100905.29
2023-03-14T23:04:23.704Z,100909.84
2023-03-14T23:06:51.689Z,100929.32
2023-03-14T23:09:19.705Z,100918.01
2023-03-14T23:11:47.573Z,100919.16
2023-03-14T23:14:15.420Z,100922.52
2023-03-14T23:16:43.272Z,100937.01
2023-03-14T23:19:12.290Z,100938.34
2023-03-14T23:21:40.335Z,100936.35
2023-03-14T23:24:08.586Z,100949.89
2023-03-14T23:26:37.668Z,100954.53
2023-03-14T23:29:08.524Z,100957.87
2023-03-14T23:31:36.368Z,100971.73
2023-03-14T23:34:04.752Z,100970.26
2023-03-14T23:36:32.812Z,100975.39
2023-03-14T23:39:00.718Z,100981.08
2023-03-14T23:41:29.192Z,100977.62
2023-03-14T23:43:57.098Z,100974.34
2023-03-14T23:46:26.965Z,100990.83
2023-03-14T23:48:56.297Z,100987.23
2023-03-14T23:51:24.367Z,100999.95
2023-03-14T23:53:52.227Z,101000.57
2023-03-14T23:56:20.305Z,101004.72
2023-03-14T23:58:48.379Z,101011.09
